sensor_id;sensor_type;location;lat;lon;timestamp;pressure;altitude;pressure_sealevel;temperature;humidity
40650;BME280;26342;42.826;23.992;2023-02-19T00:02:22;95525.56;;;3.01;100.00
40650;BME280;26342;42.826;23.992;2023-02-19T00:04:48;95515.03;;;3.01;100.00
40650;BME280;26342;42.826;23.992;2023-02-19T00:07:13;95509.31;;;3.04;100.00
40650;BME280;26342;42.826;23.992;2023-02-19T00:09:39;95513.78;;;3.03;100.00
40650;BME280;26342;42.826;23.992;2023-02-19T00:12:04;95510.94;;;3.05;100.00
40650;BME280;26342;42.826;23.992;2023-02-19T00:14:29;95506.31;;;3.00;100.00
40650;BME280;26342;42.826;23.992;2023-02-19T00:16:55;95509.72;;;3.07;100.00
40650;BME280;26342;42.826;23.992;2023-02-19T00:19:20;95518.44;;;3.08;100.00
40650;BME280;26342;42.826;23.992;2023-02-19T00:21:49;95521.50;;;3.05;100.00
40650;BME280;26342;42.826;23.992;2023-02-19T00:24:14;95528.78;;;3.10;100.00
40650;BME280;26342;42.826;23.992;2023-02-19T00:26:41;95537.50;;;3.10;100.00
40650;BME280;26342;42.826;23.992;2023-02-19T00:29:08;95531.59;;;3.08;100.00
40650;BME280;26342;42.826;23.992;2023-02-19T00:31:34;95522.28;;;3.05;100.00
40650;BME280;26342;42.826;23.992;2023-02-19T00:34:02;95519.06;;;3.03;100.00
40650;BME280;26342;42.826;23.992;2023-02-19T00:36:28;95523.31;;;2.91;100.00
40650;BME280;26342;42.826;23.992;2023-02-19T00:38:54;95519.66;;;2.92;100.00
40650;BME280;26342;42.826;23.992;2023-02-19T00:41:21;95522.13;;;2.94;100.00
40650;BME280;26342;42.826;23.992;2023-02-19T00:48:49;95521.50;;;3.05;100.00
40650;BME280;26342;42.826;23.992;2023-02-19T00:51:16;95507.94;;;2.95;100.00
40650;BME280;26342;42.826;23.992;2023-02-19T00:53:42;95481.38;;;2.83;100.00
40650;BME280;26342;42.826;23.992;2023-02-19T00:56:08;95500.41;;;2.92;100.00
40650;BME280;26342;42.826;23.992;2023-02-19T00:58:33;95498.78;;;2.97;100.00
40650;BME280;26342;42.826;23.992;2023-02-19T01:00:58;95499.00;;;2.96;100.00
40650;BME280;26342;42.826;23.992;2023-02-19T01:03:24;95502.44;;;3.03;100.00
40650;BME280;26342;42.826;23.992;2023-02-19T01:05:50;95503.22;;;3.10;100.00
40650;BME280;26342;42.826;23.992;2023-02-19T01:08:16;95509.09;;;3.12;100.00
40650;BME280;26342;42.826;23.992;2023-02-19T01:10:42;95487.84;;;3.00;100.00
40650;BME280;26342;42.826;23.992;2023-02-19T01:13:08;95504.66;;;3.06;100.00
40650;BME280;26342;42.826;23.992;2023-02-19T01:15:33;95500.41;;;3.05;100.00
40650;BME280;26342;42.826;23.992;2023-02-19T01:17:59;95504.88;;;2.98;100.00
40650;BME280;26342;42.826;23.992;2023-02-19T01:20:24;95505.47;;;3.00;100.00
40650;BME280;26342;42.826;23.992;2023-02-19T01:22:50;95503.69;;;2.87;100.00
40650;BME280;26342;42.826;23.992;2023-02-19T01:25:16;95516.88;;;2.80;100.00
40650;BME280;26342;42.826;23.992;2023-02-19T01:27:42;95525.38;;;2.76;100.00
40650;BME280;26342;42.826;23.992;2023-02-19T01:30:08;95536.13;;;2.74;100.00
40650;BME280;26342;42.826;23.992;2023-02-19T01:32:33;95553.38;;;2.77;100.00
40650;BME280;26342;42.826;23.992;2023-02-19T01:34:59;95559.03;;;2.61;100.00
40650;BME280;26342;42.826;23.992;2023-02-19T01:37:24;95569.56;;;2.67;100.00
40650;BME280;26342;42.826;23.992;2023-02-19T01:39:49;95564.09;;;2.75;100.00
40650;BME280;26342;42.826;23.992;2023-02-19T01:42:15;95542.63;;;2.72;100.00
40650;BME280;26342;42.826;23.992;2023-02-19T01:47:06;95545.66;;;2.42;100.00
40650;BME280;26342;42.826;23.992;2023-02-19T01:49:45;95546.03;;;2.26;100.00
40650;BME280;26342;42.826;23.992;2023-02-19T01:52:19;95545.41;;;2.17;100.00
40650;BME280;26342;42.826;23.992;2023-02-19T01:54:47;95541.00;;;2.31;100.00
40650;BME280;26342;42.826;23.992;2023-02-19T01:57:17;95550.69;;;2.44;100.00
40650;BME280;26342;42.826;23.992;2023-02-19T01:59:43;95550.13;;;2.55;100.00
40650;BME280;26342;42.826;23.992;2023-02-19T02:02:10;95542.59;;;2.59;100.00
40650;BME280;26342;42.826;23.992;2023-02-19T02:04:36;95548.09;;;2.70;100.00
40650;BME280;26342;42.826;23.992;2023-02-19T02:07:03;95542.63;;;2.65;100.00
40650;BME280;26342;42.826;23.992;2023-02-19T02:09:50;95540.78;;;2.66;100.00
40650;BME280;26342;42.826;23.992;2023-02-19T02:12:34;95526.38;;;2.82;100.00
40650;BME280;26342;42.826;23.992;2023-02-19T02:14:59;95538.53;;;2.89;100.00
40650;BME280;26342;42.826;23.992;2023-02-19T02:17:28;95545.03;;;2.93;100.00
40650;BME280;26342;42.826;23.992;2023-02-19T02:22:40;95545.00;;;3.06;100.00
40650;BME280;26342;42.826;23.992;2023-02-19T02:30:30;95571.78;;;3.10;100.00
40650;BME280;26342;42.826;23.992;2023-02-19T02:36:13;95533.59;;;3.32;100.00
40650;BME280;26342;42.826;23.992;2023-02-19T02:38:43;95528.91;;;3.41;100.00
40650;BME280;26342;42.826;23.992;2023-02-19T02:41:12;95534.19;;;3.41;100.00
40650;BME280;26342;42.826;23.992;2023-02-19T02:43:38;95541.69;;;3.44;100.00
40650;BME280;26342;42.826;23.992;2023-02-19T02:46:04;95548.75;;;3.50;100.00
40650;BME280;26342;42.826;23.992;2023-02-19T02:48:56;95560.50;;;3.54;100.00
40650;BME280;26342;42.826;23.992;2023-02-19T02:51:32;95557.84;;;3.68;100.00
40650;BME280;26342;42.826;23.992;2023-02-19T02:54:11;95566.78;;;3.67;100.00
40650;BME280;26342;42.826;23.992;2023-02-19T02:56:58;95559.84;;;3.72;100.00
40650;BME280;26342;42.826;23.992;2023-02-19T02:59:30;95559.06;;;3.72;100.00
40650;BME280;26342;42.826;23.992;2023-02-19T03:02:01;95563.31;;;3.66;100.00
40650;BME280;26342;42.826;23.992;2023-02-19T03:05:01;95565.56;;;3.62;100.00
40650;BME280;26342;42.826;23.992;2023-02-19T03:08:21;95567.03;;;3.52;100.00
40650;BME280;26342;42.826;23.992;2023-02-19T03:10:53;95552.44;;;3.36;100.00
40650;BME280;26342;42.826;23.992;2023-02-19T03:13:32;95555.06;;;3.43;100.00
40650;BME280;26342;42.826;23.992;2023-02-19T03:16:25;95561.78;;;3.39;100.00
40650;BME280;26342;42.826;23.992;2023-02-19T03:19:14;95568.06;;;3.31;100.00
40650;BME280;26342;42.826;23.992;2023-02-19T03:21:46;95584.94;;;3.30;100.00
40650;BME280;26342;42.826;23.992;2023-02-19T03:24:15;95594.72;;;3.10;100.00
40650;BME280;26342;42.826;23.992;2023-02-19T03:27:02;95595.31;;;3.18;100.00
40650;BME280;26342;42.826;23.992;2023-02-19T03:29:30;95595.50;;;3.17;100.00
40650;BME280;26342;42.826;23.992;2023-02-19T03:32:03;95606.28;;;3.08;100.00
40650;BME280;26342;42.826;23.992;2023-02-19T03:34:35;95609.31;;;3.05;100.00
40650;BME280;26342;42.826;23.992;2023-02-19T03:39:56;95602.81;;;3.01;100.00
40650;BME280;26342;42.826;23.992;2023-02-19T03:42:35;95605.03;;;3.04;100.00
40650;BME280;26342;42.826;23.992;2023-02-19T03:47:53;95611.13;;;2.92;100.00
40650;BME280;26342;42.826;23.992;2023-02-19T03:50:32;95619.03;;;2.92;100.00
40650;BME280;26342;42.826;23.992;2023-02-19T03:53:10;95619.03;;;2.98;100.00
40650;BME280;26342;42.826;23.992;2023-02-19T03:59:12;95628.34;;;3.14;100.00
40650;BME280;26342;42.826;23.992;2023-02-19T04:01:46;95626.72;;;3.06;100.00
40650;BME280;26342;42.826;23.992;2023-02-19T04:04:17;95635.28;;;3.08;100.00
40650;BME280;26342;42.826;23.992;2023-02-19T04:06:47;95631.41;;;3.04;100.00
40650;BME280;26342;42.826;23.992;2023-02-19T04:09:19;95620.03;;;2.97;100.00
40650;BME280;26342;42.826;23.992;2023-02-19T04:11:47;95618.00;;;3.06;100.00
40650;BME280;26342;42.826;23.992;2023-02-19T04:14:23;95620.66;;;3.06;100.00
40650;BME280;26342;42.826;23.992;2023-02-19T04:16:59;95626.53;;;2.95;100.00
40650;BME280;26342;42.826;23.992;2023-02-19T04:19:26;95613.38;;;3.01;100.00
40650;BME280;26342;42.826;23.992;2023-02-19T04:21:55;95612.13;;;2.97;100.00
40650;BME280;26342;42.826;23.992;2023-02-19T04:24:46;95623.09;;;2.94;100.00
40650;BME280;26342;42.826;23.992;2023-02-19T04:27:13;95611.94;;;2.86;100.00
40650;BME280;26342;42.826;23.992;2023-02-19T04:29:39;95627.75;;;2.79;100.00
40650;BME280;26342;42.826;23.992;2023-02-19T04:32:04;95629.56;;;2.72;100.00
40650;BME280;26342;42.826;23.992;2023-02-19T04:34:30;95631.59;;;2.70;100.00
40650;BME280;26342;42.826;23.992;2023-02-19T04:36:55;95637.69;;;2.70;100.00
40650;BME280;26342;42.826;23.992;2023-02-19T04:39:20;95640.69;;;2.67;100.00
40650;BME280;26342;42.826;23.992;2023-02-19T04:41:46;95629.97;;;2.62;100.00
40650;BME280;26342;42.826;23.992;2023-02-19T04:44:11;95626.28;;;2.50;100.00
40650;BME280;26342;42.826;23.992;2023-02-19T04:46:37;95612.94;;;2.65;100.00
40650;BME280;26342;42.826;23.992;2023-02-19T04:49:02;95618.63;;;2.62;100.00
40650;BME280;26342;42.826;23.992;2023-02-19T04:51:28;95627.13;;;2.64;100.00
40650;BME280;26342;42.826;23.992;2023-02-19T04:53:53;95611.75;;;2.61;100.00
40650;BME280;26342;42.826;23.992;2023-02-19T04:56:20;95623.28;;;2.66;100.00
40650;BME280;26342;42.826;23.992;2023-02-19T04:58:46;95625.69;;;2.68;100.00
40650;BME280;26342;42.826;23.992;2023-02-19T05:01:12;95635.88;;;2.77;100.00
40650;BME280;26342;42.826;23.992;2023-02-19T05:03:37;95625.53;;;2.69;100.00
40650;BME280;26342;42.826;23.992;2023-02-19T05:06:04;95649.25;;;2.83;100.00
40650;BME280;26342;42.826;23.992;2023-02-19T05:08:29;95655.72;;;2.80;100.00
40650;BME280;26342;42.826;23.992;2023-02-19T05:11:03;95662.22;;;2.77;100.00
40650;BME280;26342;42.826;23.992;2023-02-19T05:13:29;95648.59;;;2.54;100.00
40650;BME280;26342;42.826;23.992;2023-02-19T05:16:01;95670.31;;;2.63;100.00
40650;BME280;26342;42.826;23.992;2023-02-19T05:18:27;95659.50;;;2.44;100.00
40650;BME280;26342;42.826;23.992;2023-02-19T05:20:52;95678.13;;;2.36;100.00
40650;BME280;26342;42.826;23.992;2023-02-19T05:23:19;95684.38;;;2.29;100.00
40650;BME280;26342;42.826;23.992;2023-02-19T05:25:45;95683.59;;;2.35;100.00
40650;BME280;26342;42.826;23.992;2023-02-19T05:28:10;95678.31;;;2.35;100.00
40650;BME280;26342;42.826;23.992;2023-02-19T05:30:46;95677.75;;;2.39;100.00
40650;BME280;26342;42.826;23.992;2023-02-19T05:33:12;95680.16;;;2.41;100.00
40650;BME280;26342;42.826;23.992;2023-02-19T05:35:49;95688.47;;;2.38;100.00
40650;BME280;26342;42.826;23.992;2023-02-19T05:38:16;95698.59;;;2.41;100.00
40650;BME280;26342;42.826;23.992;2023-02-19T05:40:42;95693.13;;;2.42;100.00
40650;BME280;26342;42.826;23.992;2023-02-19T05:43:08;95689.13;;;2.53;100.00
40650;BME280;26342;42.826;23.992;2023-02-19T05:45:35;95697.66;;;2.62;100.00
40650;BME280;26342;42.826;23.992;2023-02-19T05:48:02;95697.84;;;2.60;100.00
40650;BME280;26342;42.826;23.992;2023-02-19T05:50:28;95691.56;;;2.68;100.00
40650;BME280;26342;42.826;23.992;2023-02-19T05:52:55;95697.47;;;2.70;100.00
40650;BME280;26342;42.826;23.992;2023-02-19T05:55:20;95695.84;;;2.69;100.00
40650;BME280;26342;42.826;23.992;2023-02-19T05:57:46;95697.66;;;2.68;100.00
40650;BME280;26342;42.826;23.992;2023-02-19T06:00:16;95703.56;;;2.70;100.00
40650;BME280;26342;42.826;23.992;2023-02-19T06:02:42;95692.19;;;2.63;100.00
40650;BME280;26342;42.826;23.992;2023-02-19T06:05:08;95715.13;;;2.69;100.00
40650;BME280;26342;42.826;23.992;2023-02-19T06:07:34;95713.47;;;2.68;100.00
40650;BME280;26342;42.826;23.992;2023-02-19T06:10:00;95705.97;;;2.65;100.00
40650;BME280;26342;42.826;23.992;2023-02-19T06:12:26;95714.50;;;2.61;100.00
40650;BME280;26342;42.826;23.992;2023-02-19T06:14:51;95722.38;;;2.67;100.00
40650;BME280;26342;42.826;23.992;2023-02-19T06:17:17;95727.69;;;2.74;100.00
40650;BME280;26342;42.826;23.992;2023-02-19T06:19:42;95722.81;;;2.71;100.00
40650;BME280;26342;42.826;23.992;2023-02-19T06:22:08;95715.50;;;2.66;100.00
40650;BME280;26342;42.826;23.992;2023-02-19T06:24:33;95736.22;;;2.83;100.00
40650;BME280;26342;42.826;23.992;2023-02-19T06:27:04;95739.47;;;2.85;100.00
40650;BME280;26342;42.826;23.992;2023-02-19T06:29:30;95732.00;;;2.95;100.00
40650;BME280;26342;42.826;23.992;2023-02-19T06:31:57;95728.13;;;2.97;100.00
40650;BME280;26342;42.826;23.992;2023-02-19T06:34:22;95741.56;;;3.09;100.00
40650;BME280;26342;42.826;23.992;2023-02-19T06:36:48;95731.81;;;3.10;100.00
40650;BME280;26342;42.826;23.992;2023-02-19T06:39:14;95721.66;;;3.20;100.00
40650;BME280;26342;42.826;23.992;2023-02-19T06:41:39;95729.16;;;3.23;100.00
40650;BME280;26342;42.826;23.992;2023-02-19T06:44:05;95718.44;;;3.24;100.00
40650;BME280;26342;42.826;23.992;2023-02-19T06:46:30;95717.59;;;3.24;100.00
40650;BME280;26342;42.826;23.992;2023-02-19T06:48:55;95719.66;;;3.48;100.00
40650;BME280;26342;42.826;23.992;2023-02-19T06:51:21;95727.38;;;3.56;100.00
40650;BME280;26342;42.826;23.992;2023-02-19T06:53:48;95740.13;;;3.59;100.00
40650;BME280;26342;42.826;23.992;2023-02-19T06:56:25;95732.41;;;3.71;100.00
40650;BME280;26342;42.826;23.992;2023-02-19T06:58:53;95735.66;;;3.73;100.00
40650;BME280;26342;42.826;23.992;2023-02-19T07:01:19;95730.38;;;3.80;100.00
40650;BME280;26342;42.826;23.992;2023-02-19T07:03:44;95724.69;;;3.89;100.00
40650;BME280;26342;42.826;23.992;2023-02-19T07:06:10;95705.38;;;3.96;100.00
40650;BME280;26342;42.826;23.992;2023-02-19T07:08:35;95723.81;;;4.09;100.00
40650;BME280;26342;42.826;23.992;2023-02-19T07:11:00;95718.28;;;4.24;100.00
40650;BME280;26342;42.826;23.992;2023-02-19T07:13:27;95714.16;;;4.34;100.00
40650;BME280;26342;42.826;23.992;2023-02-19T07:16:01;95719.63;;;4.46;100.00
40650;BME280;26342;42.826;23.992;2023-02-19T07:18:28;95732.69;;;4.79;100.00
40650;BME280;26342;42.826;23.992;2023-02-19T07:20:54;95716.50;;;5.00;100.00
40650;BME280;26342;42.826;23.992;2023-02-19T07:23:19;95714.38;;;5.16;100.00
40650;BME280;26342;42.826;23.992;2023-02-19T07:25:45;95710.16;;;5.33;100.00
40650;BME280;26342;42.826;23.992;2023-02-19T07:28:10;95721.66;;;5.70;100.00
40650;BME280;26342;42.826;23.992;2023-02-19T07:30:35;95720.28;;;5.93;100.00
40650;BME280;26342;42.826;23.992;2023-02-19T07:33:01;95723.69;;;6.18;100.00
40650;BME280;26342;42.826;23.992;2023-02-19T07:35:26;95713.94;;;6.49;100.00
40650;BME280;26342;42.826;23.992;2023-02-19T07:37:52;95712.56;;;6.76;100.00
40650;BME280;26342;42.826;23.992;2023-02-19T07:40:17;95705.03;;;6.91;100.00
40650;BME280;26342;42.826;23.992;2023-02-19T07:42:42;95694.97;;;7.23;100.00
40650;BME280;26342;42.826;23.992;2023-02-19T07:45:08;95692.59;;;7.45;100.00
40650;BME280;26342;42.826;23.992;2023-02-19T07:47:33;95692.03;;;7.78;100.00
40650;BME280;26342;42.826;23.992;2023-02-19T07:50:00;95701.59;;;8.15;100.00
40650;BME280;26342;42.826;23.992;2023-02-19T07:52:26;95706.19;;;8.43;100.00
40650;BME280;26342;42.826;23.992;2023-02-19T07:54:52;95697.69;;;8.69;100.00
40650;BME280;26342;42.826;23.992;2023-02-19T07:57:18;95700.50;;;8.91;100.00
40650;BME280;26342;42.826;23.992;2023-02-19T07:59:43;95702.91;;;9.21;100.00
40650;BME280;26342;42.826;23.992;2023-02-19T08:02:15;95698.34;;;9.50;100.00
40650;BME280;26342;42.826;23.992;2023-02-19T08:05:00;95695.03;;;9.76;100.00
40650;BME280;26342;42.826;23.992;2023-02-19T08:07:35;95694.03;;;9.99;100.00
40650;BME280;26342;42.826;23.992;2023-02-19T08:10:02;95689.78;;;10.20;100.00
40650;BME280;26342;42.826;23.992;2023-02-19T08:12:57;95696.53;;;10.45;100.00
40650;BME280;26342;42.826;23.992;2023-02-19T08:15:41;95687.28;;;10.74;100.00
40650;BME280;26342;42.826;23.992;2023-02-19T08:18:07;95682.59;;;11.08;100.00
40650;BME280;26342;42.826;23.992;2023-02-19T08:20:32;95680.44;;;11.37;98.96
40650;BME280;26342;42.826;23.992;2023-02-19T08:22:58;95672.06;;;11.61;100.00
40650;BME280;26342;42.826;23.992;2023-02-19T08:25:23;95682.22;;;11.91;98.95
40650;BME280;26342;42.826;23.992;2023-02-19T08:27:50;95687.78;;;12.21;98.65
40650;BME280;26342;42.826;23.992;2023-02-19T08:30:15;95677.47;;;12.45;97.81
40650;BME280;26342;42.826;23.992;2023-02-19T08:32:41;95671.69;;;12.74;94.87
40650;BME280;26342;42.826;23.992;2023-02-19T08:35:06;95681.16;;;13.07;97.08
40650;BME280;26342;42.826;23.992;2023-02-19T08:37:31;95667.84;;;13.48;90.85
40650;BME280;26342;42.826;23.992;2023-02-19T08:39:57;95667.31;;;13.76;84.06
40650;BME280;26342;42.826;23.992;2023-02-19T08:42:22;95659.72;;;14.14;82.58
40650;BME280;26342;42.826;23.992;2023-02-19T08:44:48;95667.19;;;14.52;83.89
40650;BME280;26342;42.826;23.992;2023-02-19T08:47:13;95656.28;;;14.88;78.48
40650;BME280;26342;42.826;23.992;2023-02-19T08:49:39;95643.72;;;15.23;76.74
40650;BME280;26342;42.826;23.992;2023-02-19T08:52:04;95643.41;;;15.69;81.58
40650;BME280;26342;42.826;23.992;2023-02-19T08:54:29;95640.84;;;16.11;71.13
40650;BME280;26342;42.826;23.992;2023-02-19T08:56:55;95642.03;;;16.29;65.22
40650;BME280;26342;42.826;23.992;2023-02-19T08:59:20;95629.06;;;16.55;58.28
40650;BME280;26342;42.826;23.992;2023-02-19T09:01:46;95624.81;;;16.73;55.28
40650;BME280;26342;42.826;23.992;2023-02-19T09:04:11;95615.44;;;16.70;58.04
40650;BME280;26342;42.826;23.992;2023-02-19T09:06:37;95624.41;;;16.85;58.05
40650;BME280;26342;42.826;23.992;2023-02-19T09:09:03;95636.69;;;17.15;53.72
40650;BME280;26342;42.826;23.992;2023-02-19T09:11:29;95631.00;;;17.16;53.92
40650;BME280;26342;42.826;23.992;2023-02-19T09:13:55;95622.97;;;17.11;58.81
40650;BME280;26342;42.826;23.992;2023-02-19T09:16:21;95630.47;;;17.33;55.76
40650;BME280;26342;42.826;23.992;2023-02-19T09:18:47;95623.66;;;17.54;52.23
40650;BME280;26342;42.826;23.992;2023-02-19T09:21:12;95614.00;;;17.86;49.28
40650;BME280;26342;42.826;23.992;2023-02-19T09:23:38;95613.31;;;18.08;46.41
40650;BME280;26342;42.826;23.992;2023-02-19T09:26:04;95620.03;;;18.24;50.32
40650;BME280;26342;42.826;23.992;2023-02-19T09:28:32;95618.34;;;18.56;50.39
40650;BME280;26342;42.826;23.992;2023-02-19T09:31:10;95614.16;;;18.77;46.58
40650;BME280;26342;42.826;23.992;2023-02-19T09:33:36;95604.69;;;19.02;45.93
40650;BME280;26342;42.826;23.992;2023-02-19T09:36:03;95600.69;;;19.36;45.13
40650;BME280;26342;42.826;23.992;2023-02-19T09:38:29;95601.81;;;19.57;45.49
40650;BME280;26342;42.826;23.992;2023-02-19T09:40:58;95597.78;;;19.68;42.16
40650;BME280;26342;42.826;23.992;2023-02-19T09:43:30;95604.63;;;19.97;43.90
40650;BME280;26342;42.826;23.992;2023-02-19T09:46:08;95602.84;;;19.92;41.17
40650;BME280;26342;42.826;23.992;2023-02-19T09:48:36;95601.13;;;19.74;39.83
40650;BME280;26342;42.826;23.992;2023-02-19T09:51:02;95592.13;;;19.42;42.37
40650;BME280;26342;42.826;23.992;2023-02-19T09:53:35;95598.84;;;19.90;42.63
40650;BME280;26342;42.826;23.992;2023-02-19T09:56:05;95595.00;;;20.22;39.59
40650;BME280;26342;42.826;23.992;2023-02-19T09:58:33;95595.00;;;20.53;46.38
40650;BME280;26342;42.826;23.992;2023-02-19T10:01:02;95595.19;;;20.56;37.33
40650;BME280;26342;42.826;23.992;2023-02-19T10:03:31;95603.22;;;20.79;37.42
40650;BME280;26342;42.826;23.992;2023-02-19T10:06:00;95600.88;;;21.03;38.83
40650;BME280;26342;42.826;23.992;2023-02-19T10:08:32;95589.38;;;21.06;36.93
40650;BME280;26342;42.826;23.992;2023-02-19T10:11:01;95582.81;;;20.33;38.60
40650;BME280;26342;42.826;23.992;2023-02-19T10:13:32;95576.22;;;20.25;37.92
40650;BME280;26342;42.826;23.992;2023-02-19T10:16:01;95576.03;;;20.22;37.34
40650;BME280;26342;42.826;23.992;2023-02-19T10:18:37;95561.41;;;19.83;38.92
40650;BME280;26342;42.826;23.992;2023-02-19T10:21:03;95565.78;;;20.01;37.97
40650;BME280;26342;42.826;23.992;2023-02-19T10:23:30;95563.50;;;20.34;37.44
40650;BME280;26342;42.826;23.992;2023-02-19T10:25:57;95560.94;;;20.29;36.46
40650;BME280;26342;42.826;23.992;2023-02-19T10:28:27;95546.72;;;20.63;37.76
40650;BME280;26342;42.826;23.992;2023-02-19T10:30:57;95550.59;;;19.92;36.94
40650;BME280;26342;42.826;23.992;2023-02-19T10:33:23;95532.59;;;19.65;36.91
40650;BME280;26342;42.826;23.992;2023-02-19T10:38:32;95528.38;;;19.81;38.60
40650;BME280;26342;42.826;23.992;2023-02-19T10:41:11;95526.78;;;19.80;38.24
40650;BME280;26342;42.826;23.992;2023-02-19T10:43:41;95512.81;;;19.33;38.10
40650;BME280;26342;42.826;23.992;2023-02-19T10:46:16;95511.38;;;18.91;41.16
40650;BME280;26342;42.826;23.992;2023-02-19T10:48:52;95507.09;;;18.26;39.60
40650;BME280;26342;42.826;23.992;2023-02-19T10:51:18;95507.97;;;18.49;40.96
40650;BME280;26342;42.826;23.992;2023-02-19T10:53:50;95500.19;;;18.20;40.62
40650;BME280;26342;42.826;23.992;2023-02-19T10:56:27;95491.56;;;18.46;40.48
40650;BME280;26342;42.826;23.992;2023-02-19T10:58:54;95489.25;;;18.53;40.32
40650;BME280;26342;42.826;23.992;2023-02-19T11:01:23;95490.00;;;18.81;39.96
40650;BME280;26342;42.826;23.992;2023-02-19T11:03:52;95477.03;;;18.91;39.57
40650;BME280;26342;42.826;23.992;2023-02-19T11:06:37;95472.22;;;19.11;39.19
40650;BME280;26342;42.826;23.992;2023-02-19T11:09:03;95477.16;;;19.31;41.43
40650;BME280;26342;42.826;23.992;2023-02-19T11:11:30;95481.97;;;19.43;39.51
40650;BME280;26342;42.826;23.992;2023-02-19T11:13:57;95479.25;;;19.65;37.84
40650;BME280;26342;42.826;23.992;2023-02-19T11:16:36;95468.00;;;19.49;37.70
40650;BME280;26342;42.826;23.992;2023-02-19T11:19:02;95466.53;;;19.12;38.76
40650;BME280;26342;42.826;23.992;2023-02-19T11:21:29;95471.09;;;19.34;39.74
40650;BME280;26342;42.826;23.992;2023-02-19T11:23:59;95464.72;;;19.30;38.58
40650;BME280;26342;42.826;23.992;2023-02-19T11:26:31;95462.78;;;19.22;39.10
40650;BME280;26342;42.826;23.992;2023-02-19T11:29:01;95465.00;;;19.20;39.93
40650;BME280;26342;42.826;23.992;2023-02-19T11:31:35;95454.19;;;19.20;39.64
40650;BME280;26342;42.826;23.992;2023-02-19T11:38:54;95445.97;;;19.34;38.85
40650;BME280;26342;42.826;23.992;2023-02-19T11:41:35;95446.06;;;19.20;38.60
40650;BME280;26342;42.826;23.992;2023-02-19T11:49:42;95436.59;;;19.62;37.39
40650;BME280;26342;42.826;23.992;2023-02-19T11:57:42;95415.09;;;19.66;39.12
40650;BME280;26342;42.826;23.992;2023-02-19T12:00:24;95402.13;;;19.54;37.37
40650;BME280;26342;42.826;23.992;2023-02-19T12:09:07;95400.03;;;19.51;38.40
40650;BME280;26342;42.826;23.992;2023-02-19T12:11:37;95389.22;;;19.51;37.45
40650;BME280;26342;42.826;23.992;2023-02-19T12:16:56;95374.72;;;19.47;37.61
40650;BME280;26342;42.826;23.992;2023-02-19T12:23:07;95361.59;;;19.63;39.88
40650;BME280;26342;42.826;23.992;2023-02-19T12:28:07;95358.91;;;19.71;38.56
40650;BME280;26342;42.826;23.992;2023-02-19T12:30:43;95356.41;;;19.84;38.69
40650;BME280;26342;42.826;23.992;2023-02-19T12:38:43;95352.94;;;19.52;36.07
40650;BME280;26342;42.826;23.992;2023-02-19T12:44:21;95327.78;;;19.51;36.71
40650;BME280;26342;42.826;23.992;2023-02-19T12:46:55;95322.44;;;19.69;35.35
40650;BME280;26342;42.826;23.992;2023-02-19T12:49:27;95326.41;;;19.71;36.47
40650;BME280;26342;42.826;23.992;2023-02-19T12:51:56;95321.88;;;19.49;37.12
40650;BME280;26342;42.826;23.992;2023-02-19T12:54:40;95315.53;;;19.54;36.86
40650;BME280;26342;42.826;23.992;2023-02-19T12:57:12;95320.13;;;19.53;36.35
40650;BME280;26342;42.826;23.992;2023-02-19T13:08:21;95303.53;;;19.38;35.53
40650;BME280;26342;42.826;23.992;2023-02-19T13:10:55;95302.94;;;19.49;36.03
40650;BME280;26342;42.826;23.992;2023-02-19T13:13:33;95292.28;;;19.53;37.01
40650;BME280;26342;42.826;23.992;2023-02-19T13:16:05;95293.56;;;19.56;36.09
40650;BME280;26342;42.826;23.992;2023-02-19T13:18:40;95277.94;;;19.44;35.04
40650;BME280;26342;42.826;23.992;2023-02-19T13:21:07;95266.94;;;19.40;35.87
40650;BME280;26342;42.826;23.992;2023-02-19T13:23:39;95265.00;;;19.32;35.79
40650;BME280;26342;42.826;23.992;2023-02-19T13:34:31;95255.72;;;19.16;34.87
40650;BME280;26342;42.826;23.992;2023-02-19T13:37:01;95245.03;;;19.02;36.47
40650;BME280;26342;42.826;23.992;2023-02-19T13:39:27;95250.28;;;19.07;35.12
40650;BME280;26342;42.826;23.992;2023-02-19T13:41:56;95246.53;;;18.86;35.09
40650;BME280;26342;42.826;23.992;2023-02-19T13:44:28;95241.22;;;18.72;35.42
40650;BME280;26342;42.826;23.992;2023-02-19T13:46:54;95239.34;;;18.73;36.44
40650;BME280;26342;42.826;23.992;2023-02-19T13:52:02;95226.50;;;18.56;37.79
40650;BME280;26342;42.826;23.992;2023-02-19T13:54:47;95221.69;;;18.44;36.36
40650;BME280;26342;42.826;23.992;2023-02-19T13:59:47;95229.81;;;18.22;37.36
40650;BME280;26342;42.826;23.992;2023-02-19T14:08:07;95216.09;;;18.09;37.90
40650;BME280;26342;42.826;23.992;2023-02-19T14:10:11;95220.97;;;18.07;40.00
40650;BME280;26342;42.826;23.992;2023-02-19T14:12:37;95216.00;;;18.01;38.83
40650;BME280;26342;42.826;23.992;2023-02-19T14:15:37;95222.34;;;17.96;39.25
40650;BME280;26342;42.826;23.992;2023-02-19T14:18:43;95219.97;;;17.95;39.35
40650;BME280;26342;42.826;23.992;2023-02-19T14:21:37;95210.44;;;17.97;38.63
40650;BME280;26342;42.826;23.992;2023-02-19T14:24:02;95209.94;;;17.95;40.46
40650;BME280;26342;42.826;23.992;2023-02-19T14:26:31;95207.31;;;17.81;39.31
40650;BME280;26342;42.826;23.992;2023-02-19T14:28:59;95203.00;;;17.80;38.13
40650;BME280;26342;42.826;23.992;2023-02-19T14:31:35;95198.53;;;17.76;37.89
40650;BME280;26342;42.826;23.992;2023-02-19T14:34:04;95197.06;;;17.56;38.37
40650;BME280;26342;42.826;23.992;2023-02-19T14:36:43;95201.16;;;17.53;39.47
40650;BME280;26342;42.826;23.992;2023-02-19T14:41:44;95196.06;;;17.52;41.26
40650;BME280;26342;42.826;23.992;2023-02-19T14:44:17;95189.03;;;17.42;41.83